createdAt,value
2023-03-21T00:00:41.139Z,100106.72
2023-03-21T00:03:28.976Z,100078.50
2023-03-21T00:06:16.772Z,100107.66
2023-03-21T00:09:04.746Z,100086.06
2023-03-21T00:11:52.600Z,100095.47
2023-03-21T00:14:40.485Z,100098.91
2023-03-21T00:17:32.937Z,100110.97
2023-03-21T00:20:21.058Z,100091.81
2023-03-21T00:23:08.787Z,100096.63
2023-03-21T00:25:56.949Z,100103.16
2023-03-21T00:28:44.661Z,100101.09
2023-03-21T00:31:33.729Z,100082.75
2023-03-21T00:34:31.675Z,100105.47
2023-03-21T00:37:29.295Z,100105.94
2023-03-21T00:40:26.694Z,100080.19
2023-03-21T00:43:19.688Z,100105.91
2023-03-21T00:46:07.886Z,100092.84
2023-03-21T00:48:56.256Z,100086.06
2023-03-21T00:51:44.728Z,100090.97
2023-03-21T00:54:33.202Z,100062.56
2023-03-21T00:57:29.323Z,100075.41
2023-03-21T01:00:24.403Z,100065.88
2023-03-21T01:03:23.899Z,100032.59
2023-03-21T01:06:13.926Z,100029.41
2023-03-21T01:09:01.842Z,100054.97
2023-03-21T01:11:50.801Z,100039.25
2023-03-21T01:14:38.530Z,100061.97
2023-03-21T01:17:26.262Z,100071.63
2023-03-21T01:20:13.949Z,100048.31
2023-03-21T01:23:01.683Z,100078.97
2023-03-21T01:25:50.987Z,100063.81
2023-03-21T01:28:41.551Z,100083.09
2023-03-21T01:31:29.229Z,100048.66
2023-03-21T01:34:17.070Z,100074.50
2023-03-21T01:37:04.889Z,100071.50
2023-03-21T01:40:05.197Z,100076.56
2023-03-21T01:42:53.210Z,100043.06
2023-03-21T01:46:08.519Z,100082.03
2023-03-21T01:49:27.855Z,100081.13
2023-03-21T01:52:38.909Z,100070.22
2023-03-21T01:55:48.101Z,100059.38
2023-03-21T01:58:51.262Z,100066.47
2023-03-21T02:02:07.540Z,100070.84
2023-03-21T02:05:04.188Z,100067.81
2023-03-21T02:07:53.060Z,100069.78
2023-03-21T02:10:46.039Z,100086.44
2023-03-21T02:13:41.183Z,100046.81
2023-03-21T02:16:47.768Z,100074.03
2023-03-21T02:19:53.346Z,100042.25
2023-03-21T02:22:47.057Z,100070.69
2023-03-21T02:25:43.943Z,100074.84
2023-03-21T02:28:45.968Z,100078.84
2023-03-21T02:32:16.533Z,100072.88
2023-03-21T02:36:14.429Z,100068.09
2023-03-21T02:39:27.147Z,100076.31
2023-03-21T02:42:30.595Z,100044.19
2023-03-21T02:45:21.645Z,100062.88
2023-03-21T02:48:30.969Z,100062.09
2023-03-21T02:51:24.268Z,100056.81
2023-03-21T02:54:30.349Z,100070.00
2023-03-21T02:57:27.048Z,100061.19
2023-03-21T03:00:23.579Z,100055.44
2023-03-21T03:03:20.950Z,100057.50
2023-03-21T03:06:38.890Z,100061.88
2023-03-21T03:09:57.823Z,100073.31
2023-03-21T03:13:07.313Z,100074.69
2023-03-21T03:16:16.988Z,100072.28
2023-03-21T03:19:28.051Z,100082.59
2023-03-21T03:22:24.005Z,100074.94
2023-03-21T03:25:24.999Z,100078.84
2023-03-21T03:28:26.775Z,100070.91
2023-03-21T03:31:22.189Z,100062.56
2023-03-21T03:34:21.384Z,100078.28
2023-03-21T03:37:14.538Z,100044.22
2023-03-21T03:40:16.987Z,100064.28
2023-03-21T03:43:20.804Z,100060.63
2023-03-21T03:46:19.267Z,100035.13
2023-03-21T03:49:14.107Z,100043.97
2023-03-21T03:52:13.114Z,100038.34
2023-03-21T03:55:13.726Z,100032.03
2023-03-21T03:58:10.632Z,100035.13
2023-03-21T04:01:10.106Z,100005.16
2023-03-21T04:04:12.204Z,100035.16
2023-03-21T04:07:03.667Z,100039.06
2023-03-21T04:09:54.138Z,100040.44
2023-03-21T04:12:42.218Z,100033.19
2023-03-21T04:15:40.732Z,100017.44
2023-03-21T04:18:36.324Z,100041.97
2023-03-21T04:21:24.077Z,100027.44
2023-03-21T04:24:12.356Z,100051.34
2023-03-21T04:27:01.299Z,100042.63
2023-03-21T04:30:00.886Z,100052.88
2023-03-21T04:33:08.899Z,100065.59
2023-03-21T04:35:59.459Z,100044.25
2023-03-21T04:38:51.677Z,100069.53
2023-03-21T04:41:41.124Z,100075.31
2023-03-21T04:44:28.796Z,100085.63
2023-03-21T04:47:17.148Z,100090.47
2023-03-21T04:50:05.348Z,100065.13
2023-03-21T04:52:53.174Z,100095.38
2023-03-21T04:55:43.613Z,100085.53
2023-03-21T04:58:31.305Z,100092.09
2023-03-21T05:01:21.001Z,100098.88
2023-03-21T05:04:09.110Z,100096.28
2023-03-21T05:06:57.611Z,100099.13
2023-03-21T05:09:52.722Z,100095.84
2023-03-21T05:12:41.531Z,100103.13
2023-03-21T05:15:29.702Z,100095.13
2023-03-21T05:18:25.025Z,100087.38
2023-03-21T05:21:41.972Z,100086.19
2023-03-21T05:24:37.594Z,100109.91
2023-03-21T05:27:34.446Z,100094.63
2023-03-21T05:30:25.406Z,100097.78
2023-03-21T05:33:17.960Z,100082.19
2023-03-21T05:36:09.106Z,100087.91
2023-03-21T05:38:56.900Z,100093.16
2023-03-21T05:41:44.815Z,100082.28
2023-03-21T05:44:32.564Z,100084.53
2023-03-21T05:47:22.443Z,100084.19
2023-03-21T05:50:13.478Z,100066.75
2023-03-21T05:53:05.004Z,100078.84
2023-03-21T05:55:53.343Z,100075.09
2023-03-21T05:58:59.321Z,100089.50
2023-03-21T06:01:48.043Z,100075.25
2023-03-21T06:04:37.247Z,100078.34
2023-03-21T06:07:25.610Z,100057.44
2023-03-21T06:10:13.663Z,100072.38
2023-03-21T06:13:05.583Z,100070.19
2023-03-21T06:15:54.627Z,100044.50
2023-03-21T06:18:47.527Z,100064.16
2023-03-21T06:21:54.528Z,100067.59
2023-03-21T06:24:42.259Z,100049.31
2023-03-21T06:27:30.071Z,100063.47
2023-03-21T06:30:18.525Z,100033.72
2023-03-21T06:33:26.483Z,100057.59
2023-03-21T06:36:16.457Z,100053.31
2023-03-21T06:39:09.046Z,100065.81
2023-03-21T06:42:01.429Z,100058.34
2023-03-21T06:44:50.053Z,100066.78
2023-03-21T06:47:37.770Z,100046.72
2023-03-21T06:50:30.628Z,100057.19
2023-03-21T06:53:21.300Z,100060.34
2023-03-21T06:56:38.268Z,100056.38
2023-03-21T06:59:26.438Z,100053.94
2023-03-21T07:02:22.671Z,100070.28
2023-03-21T07:05:29.171Z,100058.75
2023-03-21T07:08:17.800Z,100064.69
2023-03-21T07:11:06.764Z,100063.91
2023-03-21T07:13:55.112Z,100064.28
2023-03-21T07:16:44.137Z,100075.75
2023-03-21T07:19:33.850Z,100082.09
2023-03-21T07:22:21.589Z,100082.09
2023-03-21T07:25:10.806Z,100074.66
2023-03-21T07:28:01.380Z,100088.13
2023-03-21T07:30:58.469Z,100075.50
2023-03-21T07:33:46.560Z,100088.59
2023-03-21T07:36:34.412Z,100082.25
2023-03-21T07:39:23.865Z,100085.41
2023-03-21T07:42:13.188Z,100081.75
2023-03-21T07:45:01.085Z,100075.34
2023-03-21T07:47:54.047Z,100072.16
2023-03-21T07:50:41.992Z,100082.78
2023-03-21T07:53:29.805Z,100083.34
2023-03-21T07:56:17.635Z,100075.44
2023-03-21T07:59:05.870Z,100050.38
2023-03-21T08:01:53.593Z,100074.28
2023-03-21T08:04:41.233Z,100069.06
2023-03-21T08:07:28.867Z,100074.63
2023-03-21T08:10:17.777Z,100067.06
2023-03-21T08:13:06.662Z,100078.22
2023-03-21T08:15:54.279Z,100051.56
2023-03-21T08:18:42.980Z,100080.59
2023-03-21T08:21:30.566Z,100078.22
2023-03-21T08:24:18.239Z,100097.38
2023-03-21T08:27:06.158Z,100085.03
2023-03-21T08:29:54.050Z,100093.78
2023-03-21T08:32:42.489Z,100087.41
2023-03-21T08:35:31.838Z,100089.03
2023-03-21T08:38:19.473Z,100072.31
2023-03-21T08:41:07.464Z,100075.06
2023-03-21T08:43:58.786Z,100057.91
2023-03-21T08:46:46.496Z,100074.25
2023-03-21T08:49:36.236Z,100077.06
2023-03-21T08:52:23.875Z,100074.25
2023-03-21T08:55:13.109Z,100067.91
2023-03-21T08:58:01.234Z,100081.03
2023-03-21T09:00:48.812Z,100075.44
2023-03-21T09:03:36.435Z,100080.25
2023-03-21T09:06:25.059Z,100081.81
2023-03-21T09:09:12.981Z,100059.50
2023-03-21T09:12:01.174Z,100053.16
2023-03-21T09:14:49.038Z,100059.13
2023-03-21T09:17:36.805Z,100056.28
2023-03-21T09:20:31.358Z,100061.84
2023-03-21T09:23:22.780Z,100045.09
2023-03-21T09:26:10.989Z,100051.53
2023-03-21T09:28:59.208Z,100067.72
2023-03-21T09:31:47.633Z,100062.16
2023-03-21T09:34:37.226Z,100022.41
2023-03-21T09:37:24.994Z,100054.28
2023-03-21T09:40:20.849Z,100052.28
2023-03-21T09:43:24.042Z,100035.16
2023-03-21T09:46:26.076Z,100049.81
2023-03-21T09:49:31.492Z,100044.72
2023-03-21T09:52:34.624Z,100026.41
2023-03-21T09:55:37.983Z,100041.97
2023-03-21T09:58:46.549Z,100057.50
2023-03-21T10:01:42.181Z,100044.78
2023-03-21T10:04:33.285Z,100053.13
2023-03-21T10:07:21.332Z,100040.06
2023-03-21T10:10:19.306Z,100056.22
2023-03-21T10:13:17.642Z,100048.28
2023-03-21T10:16:32.618Z,100048.84
2023-03-21T10:19:23.698Z,100020.69
2023-03-21T10:22:11.550Z,100043.47
2023-03-21T10:24:59.219Z,100051.84
2023-03-21T10:27:48.399Z,100056.34
2023-03-21T10:30:43.769Z,100063.84
2023-03-21T10:33:37.452Z,100047.94
2023-03-21T10:36:31.830Z,100013.31
2023-03-21T10:39:19.392Z,100027.78
2023-03-21T10:42:10.907Z,100029.22
2023-03-21T10:44:58.825Z,100021.88
2023-03-21T10:47:50.743Z,100024.09
2023-03-21T10:50:38.339Z,100016.91
2023-03-21T10:53:33.586Z,100019.50
2023-03-21T10:56:28.093Z,100007.91
2023-03-21T10:59:20.994Z,100006.06
2023-03-21T11:02:19.827Z,99997.03
2023-03-21T11:05:20.760Z,100013.88
2023-03-21T11:08:15.324Z,100014.44
2023-03-21T11:11:10.198Z,100015.13
2023-03-21T11:14:07.618Z,99992.63
2023-03-21T11:16:58.477Z,100000.09
2023-03-21T11:20:00.277Z,99974.97
2023-03-21T11:22:49.775Z,99982.47
2023-03-21T11:25:41.750Z,99979.75
2023-03-21T11:28:49.600Z,99980.88
2023-03-21T11:31:41.775Z,99972.25
2023-03-21T11:34:51.373Z,99964.72
2023-03-21T11:37:46.614Z,99906.94
2023-03-21T11:40:36.555Z,99941.72
2023-03-21T11:43:32.212Z,99949.09
2023-03-21T11:46:32.137Z,99941.66
2023-03-21T11:49:21.447Z,99957.94
2023-03-21T11:52:13.586Z,99934.84
2023-03-21T11:55:16.894Z,99964.75
2023-03-21T11:58:23.247Z,99956.03
2023-03-21T12:01:22.446Z,99945.47
2023-03-21T12:04:33.359Z,99944.69
2023-03-21T12:07:23.999Z,99931.09
2023-03-21T12:10:20.853Z,99931.94
2023-03-21T12:13:36.140Z,99930.22
2023-03-21T12:16:54.274Z,99914.13
2023-03-21T12:20:10.566Z,99898.69
2023-03-21T12:23:17.176Z,99928.19
2023-03-21T12:26:27.952Z,99927.66
2023-03-21T12:29:40.449Z,99929.03
2023-03-21T12:32:49.967Z,99923.09
2023-03-21T12:36:18.688Z,99922.94
2023-03-21T12:39:30.710Z,99925.75
2023-03-21T12:42:34.865Z,99922.78
2023-03-21T12:45:34.187Z,99916.16
2023-03-21T12:48:33.885Z,99897.06
2023-03-21T12:51:29.607Z,99916.59
2023-03-21T12:54:38.352Z,99891.13
2023-03-21T12:57:35.737Z,99903.00
2023-03-21T13:00:38.541Z,99874.22
2023-03-21T13:03:44.034Z,99899.84
2023-03-21T13:06:32.089Z,99859.41
2023-03-21T13:09:37.391Z,99884.16
2023-03-21T13:12:44.443Z,99862.75
2023-03-21T13:15:38.128Z,99876.03
2023-03-21T13:18:50.337Z,99865.81
2023-03-21T13:21:46.599Z,99869.13
2023-03-21T13:24:49.539Z,99847.75
2023-03-21T13:27:41.943Z,99870.75
2023-03-21T13:30:32.730Z,99863.09
2023-03-21T13:33:30.026Z,99871.59
2023-03-21T13:36:24.763Z,99824.00
2023-03-21T13:39:44.513Z,99856.91
2023-03-21T13:42:34.349Z,99853.44
2023-03-21T13:45:32.746Z,99848.34
2023-03-21T13:48:57.990Z,99848.06
2023-03-21T13:51:58.711Z,99853.44
2023-03-21T13:54:55.376Z,99857.69
2023-03-21T13:57:47.679Z,99857.88
2023-03-21T14:00:40.014Z,99846.69
2023-03-21T14:03:34.098Z,99855.25
2023-03-21T14:06:21.942Z,99856.19
2023-03-21T14:09:15.851Z,99846.34
2023-03-21T14:12:08.179Z,99851.47
2023-03-21T14:15:28.060Z,99849.94
2023-03-21T14:18:27.994Z,99844.03
2023-03-21T14:21:30.566Z,99850.53
2023-03-21T14:24:20.174Z,99833.38
2023-03-21T14:27:12.031Z,99846.38
2023-03-21T14:30:01.296Z,99842.84
2023-03-21T14:32:54.401Z,99834.94
2023-03-21T14:35:46.307Z,99840.38
2023-03-21T14:38:37.108Z,99830.50
2023-03-21T14:41:31.114Z,99828.19
2023-03-21T14:44:28.125Z,99825.06
2023-03-21T14:47:27.334Z,99825.56
2023-03-21T14:50:15.136Z,99833.34
2023-03-21T14:53:03.017Z,99812.78
2023-03-21T14:56:23.085Z,99834.31
2023-03-21T14:59:14.830Z,99835.34
2023-03-21T15:02:18.387Z,99845.94
2023-03-21T15:05:19.018Z,99835.16
2023-03-21T15:08:17.191Z,99839.94
2023-03-21T15:11:08.564Z,99831.59
2023-03-21T15:13:57.139Z,99842.31
2023-03-21T15:16:45.089Z,99834.38
2023-03-21T15:19:38.301Z,99827.72
2023-03-21T15:22:38.597Z,99825.78
2023-03-21T15:25:31.142Z,99801.94
2023-03-21T15:28:19.244Z,99834.50
2023-03-21T15:31:16.461Z,99822.63
2023-03-21T15:34:07.287Z,99818.19
2023-03-21T15:37:08.433Z,99806.41
2023-03-21T15:40:15.965Z,99814.00
2023-03-21T15:43:19.012Z,99839.06
2023-03-21T15:46:18.349Z,99841.84
2023-03-21T15:49:08.998Z,99842.66
2023-03-21T15:51:59.652Z,99818.41
2023-03-21T15:54:56.984Z,99839.44
2023-03-21T15:57:47.755Z,99845.84
2023-03-21T16:00:44.739Z,99844.66
2023-03-21T16:03:40.750Z,99825.19
2023-03-21T16:06:34.279Z,99841.47
2023-03-21T16:09:24.917Z,99849.03
2023-03-21T16:12:17.012Z,99837.91
2023-03-21T16:15:07.290Z,99841.06
2023-03-21T16:18:01.201Z,99807.28
2023-03-21T16:20:50.423Z,99823.56
2023-03-21T16:23:38.140Z,99837.84
2023-03-21T16:26:32.302Z,99833.88
2023-03-21T16:29:20.193Z,99837.06
2023-03-21T16:32:15.753Z,99826.63
2023-03-21T16:35:04.406Z,99838.94
2023-03-21T16:37:52.115Z,99845.25
2023-03-21T16:40:42.268Z,99848.00
2023-03-21T16:43:30.281Z,99845.56
2023-03-21T16:46:23.871Z,99852.34
2023-03-21T16:49:26.994Z,99849.16
2023-03-21T16:52:15.316Z,99830.00
2023-03-21T16:55:03.171Z,99837.53
2023-03-21T16:57:54.873Z,99848.31
2023-03-21T17:00:42.716Z,99846.66
2023-03-21T17:03:30.482Z,99858.56
2023-03-21T17:06:23.558Z,99859.31
2023-03-21T17:09:13.918Z,99860.50
2023-03-21T17:12:01.778Z,99861.28
2023-03-21T17:14:49.729Z,99854.06
2023-03-21T17:17:40.632Z,99857.25
2023-03-21T17:20:34.736Z,99868.78
2023-03-21T17:23:22.639Z,99858.78
2023-03-21T17:26:18.459Z,99851.97
2023-03-21T17:29:06.606Z,99844.34
2023-03-21T17:31:54.474Z,99864.69
2023-03-21T17:34:42.276Z,99869.44
2023-03-21T17:37:32.592Z,99851.88
2023-03-21T17:40:27.431Z,99875.72
2023-03-21T17:43:18.523Z,99852.97
2023-03-21T17:46:06.294Z,99880.41
2023-03-21T17:48:54.236Z,99878.00
2023-03-21T17:51:43.448Z,99886.31
2023-03-21T17:54:32.298Z,99876.34
2023-03-21T17:57:22.734Z,99882.59
2023-03-21T18:00:23.145Z,99878.50
2023-03-21T18:03:10.904Z,99868.88
2023-03-21T18:05:59.854Z,99865.28
2023-03-21T18:08:52.984Z,99879.97
2023-03-21T18:11:41.469Z,99886.72
2023-03-21T18:14:30.745Z,99889.53
2023-03-21T18:17:21.602Z,99897.09
2023-03-21T18:20:17.197Z,99890.72
2023-03-21T18:23:05.135Z,99889.78
2023-03-21T18:25:53.323Z,99891.34
2023-03-21T18:28:41.747Z,99887.69
2023-03-21T18:31:42.735Z,99890.16
2023-03-21T18:34:35.132Z,99897.31
2023-03-21T18:37:23.101Z,99898.50
2023-03-21T18:40:14.685Z,99904.81
2023-03-21T18:46:14.008Z,99902.72
2023-03-21T18:49:33.545Z,99906.63
2023-03-21T18:52:13.554Z,99885.88
2023-03-21T18:55:01.354Z,99886.66
2023-03-21T18:57:49.084Z,99900.16
2023-03-21T19:00:37.586Z,99903.72
2023-03-21T19:03:35.705Z,99907.19
2023-03-21T19:06:28.423Z,99900.03
2023-03-21T19:09:18.182Z,99832.59
2023-03-21T19:12:06.728Z,99911.53
2023-03-21T19:14:55.881Z,99907.53
2023-03-21T19:20:55.898Z,99916.63
2023-03-21T19:26:54.698Z,99927.59
2023-03-21T19:29:42.755Z,99934.59
2023-03-21T19:32:31.072Z,99926.75
2023-03-21T19:35:20.376Z,99924.31
2023-03-21T19:38:08.338Z,99941.03
2023-03-21T19:41:01.155Z,99921.88
2023-03-21T19:43:55.106Z,99903.50
2023-03-21T19:46:44.310Z,99934.91
2023-03-21T19:50:04.666Z,99941.59
2023-03-21T19:52:39.916Z,99931.09
2023-03-21T19:55:27.974Z,99946.53
2023-03-21T19:58:22.682Z,99952.47
2023-03-21T20:01:11.754Z,99946.38
2023-03-21T20:03:59.993Z,99940.44
2023-03-21T20:06:47.801Z,99968.34
2023-03-21T20:09:51.149Z,99947.88
2023-03-21T20:12:40.031Z,99967.91
2023-03-21T20:15:29.911Z,99963.38
2023-03-21T20:18:30.464Z,99982.34
2023-03-21T20:21:25.426Z,99980.38
2023-03-21T20:24:13.939Z,99969.00
2023-03-21T20:27:01.660Z,99971.06
2023-03-21T20:30:09.174Z,99978.13
2023-03-21T20:32:57.767Z,99975.38
2023-03-21T20:36:19.786Z,99969.84
2023-03-21T20:38:42.571Z,99950.13
2023-03-21T20:41:30.549Z,99975.25
2023-03-21T20:44:56.001Z,99972.19
2023-03-21T20:47:27.960Z,99985.09
2023-03-21T20:50:16.088Z,99994.13
2023-03-21T20:53:07.316Z,99980.47
2023-03-21T20:55:55.336Z,99998.13
2023-03-21T20:59:01.953Z,99991.53
2023-03-21T21:01:51.494Z,100004.28
2023-03-21T21:05:08.150Z,99993.81
2023-03-21T21:07:49.300Z,99987.25
2023-03-21T21:11:02.714Z,99995.09
2023-03-21T21:13:47.146Z,100017.72
2023-03-21T21:16:35.134Z,100001.53
2023-03-21T21:19:22.818Z,100016.31
2023-03-21T21:22:10.612Z,100020.38
2023-03-21T21:24:58.312Z,99969.09
2023-03-21T21:27:46.563Z,100010.13
2023-03-21T21:30:38.359Z,99986.38
2023-03-21T21:33:29.337Z,100021.94
2023-03-21T21:36:17.212Z,100024.97
2023-03-21T21:39:06.287Z,100020.59
2023-03-21T21:41:54.529Z,100024.53
2023-03-21T21:44:45.115Z,100035.53
2023-03-21T21:47:32.839Z,100045.06
2023-03-21T21:50:22.373Z,100036.22
2023-03-21T21:53:11.977Z,100045.06
2023-03-21T21:56:03.691Z,100015.06
2023-03-21T21:58:53.462Z,100037.13
2023-03-21T22:01:42.539Z,100046.72
2023-03-21T22:04:30.458Z,100022.28
2023-03-21T22:07:21.416Z,100007.34
2023-03-21T22:10:09.455Z,100031.38
2023-03-21T22:12:57.199Z,100049.78
2023-03-21T22:15:55.496Z,100040.97
2023-03-21T22:18:43.437Z,100041.91
2023-03-21T22:21:31.307Z,100007.22
2023-03-21T22:24:18.975Z,100033.19
2023-03-21T22:27:06.720Z,100027.56
2023-03-21T22:29:56.983Z,100047.44
2023-03-21T22:32:56.384Z,100054.50
2023-03-21T22:35:51.925Z,100040.59
2023-03-21T22:38:42.189Z,100033.03
2023-03-21T22:41:32.382Z,100045.78
2023-03-21T22:44:23.050Z,100049.72
2023-03-21T22:47:11.313Z,100046.81
2023-03-21T22:50:06.178Z,100043.44
2023-03-21T22:53:29.678Z,100057.13
2023-03-21T22:56:17.703Z,100056.75
2023-03-21T22:59:05.468Z,100011.66
2023-03-21T23:01:53.411Z,100051.81
2023-03-21T23:04:43.569Z,100030.56
2023-03-21T23:07:31.272Z,100049.63
2023-03-21T23:10:19.368Z,100044.03
2023-03-21T23:13:07.449Z,100040.69
2023-03-21T23:15:55.312Z,100022.94
2023-03-21T23:18:43.924Z,100058.88
2023-03-21T23:21:34.382Z,100050.78
2023-03-21T23:24:24.578Z,100011.66
2023-03-21T23:27:22.108Z,100056.84
2023-03-21T23:30:19.714Z,100022.03
2023-03-21T23:33:07.871Z,100046.84
2023-03-21T23:35:55.971Z,100039.66
2023-03-21T23:38:44.768Z,100061.25
2023-03-21T23:41:32.556Z,100051.00
2023-03-21T23:44:20.377Z,100057.44
2023-03-21T23:47:08.514Z,100033.53
2023-03-21T23:49:56.295Z,100049.56
2023-03-21T23:52:44.959Z,100051.16
2023-03-21T23:55:38.124Z,100049.19
2023-03-21T23:58:28.631Z,100051.53
